Time;durP1;ratioP1;P1;durP2;ratioP2;P2;SDS_P1;SDS_P2;PMS_P1;PMS_P2;Temp;Humidity;BMP_temperature;BMP_pressure;BME280_temperature;BME280_humidity;BME280_pressure;Samples;Min_cycle;Max_cycle;Signal;HPM_P1;HPM_P2
2023/04/12 00:01:35;;;;;;;30.83;10.85;;;;;;;7.47;100.00;100312.34;5071660;28;20028;-48
2023/04/12 00:04:02;;;;;;;37.65;10.35;;;;;;;7.52;100.00;100306.47;5055196;28;20138;-48
2023/04/12 00:06:31;;;;;;;30.08;9.98;;;;;;;7.51;100.00;100308.31;5063446;28;20142;-48
2023/04/12 00:08:58;;;;;;;30.45;10.23;;;;;;;7.50;100.00;100295.91;5059495;28;20040;-50
2023/04/12 00:11:23;;;;;;;29.70;10.85;;;;;;;7.54;100.00;100291.91;5070302;28;20028;-49
2023/04/12 00:13:48;;;;;;;34.13;11.25;;;;;;;7.50;100.00;100285.22;5071398;28;20031;-50
2023/04/12 00:16:14;;;;;;;43.33;12.48;;;;;;;7.46;100.00;100284.75;5071451;28;20025;-49
2023/04/12 00:18:41;;;;;;;32.13;10.15;;;;;;;7.53;100.00;100268.81;5071593;28;20028;-49
2023/04/12 00:21:07;;;;;;;31.27;11.32;;;;;;;7.48;100.00;100250.59;5071581;28;20370;-49
2023/04/12 00:23:32;;;;;;;25.75;10.13;;;;;;;7.51;100.00;100254.78;5071405;28;20086;-50
2023/04/12 00:25:58;;;;;;;33.45;11.68;;;;;;;7.50;100.00;100231.66;5071470;28;20110;-49
2023/04/12 00:28:23;;;;;;;26.58;10.23;;;;;;;7.44;100.00;100213.63;5070756;28;20036;-53
2023/04/12 00:30:49;;;;;;;25.10;10.50;;;;;;;7.41;100.00;100214.00;5071159;28;20059;-53
2023/04/12 00:33:14;;;;;;;33.40;10.63;;;;;;;7.40;100.00;100198.97;5070873;28;20141;-51
2023/04/12 00:35:39;;;;;;;31.02;10.23;;;;;;;7.47;100.00;100210.59;5070828;28;20052;-50
2023/04/12 00:38:09;;;;;;;30.23;9.40;;;;;;;7.44;100.00;100200.25;5071095;28;20115;-51
2023/04/12 00:40:39;;;;;;;33.55;10.35;;;;;;;7.46;100.00;100193.72;5070238;28;20086;-49
2023/04/12 00:43:05;;;;;;;30.50;10.18;;;;;;;7.47;100.00;100181.16;5063911;28;20044;-51
2023/04/12 00:45:30;;;;;;;33.92;9.00;;;;;;;7.47;100.00;100163.22;5070932;28;20029;-49
2023/04/12 00:47:56;;;;;;;28.73;7.90;;;;;;;7.49;100.00;100171.09;5069498;28;20040;-49
2023/04/12 00:50:22;;;;;;;17.90;6.80;;;;;;;7.42;100.00;100164.78;5056462;28;20111;-50
2023/04/12 00:52:47;;;;;;;23.30;9.32;;;;;;;7.46;100.00;100164.25;5067309;28;20472;-53
2023/04/12 00:55:12;;;;;;;22.20;9.38;;;;;;;7.49;100.00;100155.03;5065852;28;20183;-51
2023/04/12 00:57:38;;;;;;;29.25;8.75;;;;;;;7.49;100.00;100144.31;5062198;28;20031;-52
2023/04/12 01:00:12;;;;;;;27.20;8.25;;;;;;;7.39;100.00;100130.34;5069847;28;20056;-50
2023/04/12 01:02:40;;;;;;;21.65;7.65;;;;;;;7.41;100.00;100133.69;5069668;28;20064;-52
2023/04/12 01:05:06;;;;;;;36.95;8.93;;;;;;;7.44;100.00;100119.94;5072586;28;20473;-50
2023/04/12 01:07:53;;;;;;;31.35;7.78;;;;;;;7.41;100.00;100104.22;5072830;28;20035;-51
2023/04/12 01:10:38;;;;;;;21.38;7.38;;;;;;;7.43;100.00;100113.75;5073595;28;20506;-50
2023/04/12 01:13:36;;;;;;;16.02;7.25;;;;;;;7.37;100.00;100086.84;5063488;28;20052;-50
2023/04/12 01:16:18;;;;;;;;;;;;;;;7.41;100.00;100088.16;5041824;28;20048;-51
2023/04/12 01:18:49;;;;;;;22.42;7.95;;;;;;;7.33;100.00;100074.84;5072234;28;20369;-48
2023/04/12 01:21:19;;;;;;;22.20;8.32;;;;;;;7.35;100.00;100075.50;5074190;28;20079;-49
2023/04/12 01:24:12;;;;;;;27.67;7.15;;;;;;;7.33;100.00;100074.84;5070985;28;20056;-51
2023/04/12 01:26:37;;;;;;;21.30;7.40;;;;;;;7.31;100.00;100050.94;5072460;28;20108;-51
2023/04/12 01:29:09;;;;;;;19.38;8.10;;;;;;;7.36;100.00;100051.22;5070461;28;20040;-50
2023/04/12 01:31:35;;;;;;;25.80;7.75;;;;;;;7.35;100.00;100038.03;5063698;28;20032;-49
2023/04/12 01:34:03;;;;;;;25.58;7.88;;;;;;;7.33;100.00;100042.72;5072805;28;20519;-51
2023/04/12 01:36:29;;;;;;;25.00;8.00;;;;;;;7.33;100.00;100029.34;5072591;28;20059;-53
2023/04/12 01:38:55;;;;;;;17.08;6.95;;;;;;;7.35;100.00;100030.00;5071408;28;20589;-51
2023/04/12 01:41:21;;;;;;;23.25;7.35;;;;;;;7.34;100.00;100018.44;5073643;28;20107;-49
2023/04/12 01:43:46;;;;;;;27.00;6.97;;;;;;;7.26;100.00;100014.00;5058938;28;20056;-51
2023/04/12 01:46:15;;;;;;;20.13;6.03;;;;;;;7.26;100.00;100011.31;5071744;28;20036;-54
2023/04/12 01:48:44;;;;;;;23.88;6.55;;;;;;;7.31;100.00;99996.56;5070199;28;20492;-49
2023/04/12 01:51:14;;;;;;;21.70;6.45;;;;;;;7.26;100.00;100000.63;5071454;28;20086;-49
2023/04/12 01:53:55;;;;;;;16.67;5.97;;;;;;;7.27;100.00;99988.09;5072282;28;20075;-51
2023/04/12 01:56:21;;;;;;;15.27;6.15;;;;;;;7.24;100.00;99983.94;5054501;28;20037;-53
2023/04/12 01:58:50;;;;;;;18.38;5.40;;;;;;;7.22;100.00;99982.44;5069762;28;20031;-52
2023/04/12 02:01:16;;;;;;;10.13;4.82;;;;;;;7.21;100.00;99980.75;5071921;28;20056;-53
2023/04/12 02:03:42;;;;;;;21.95;5.20;;;;;;;7.23;100.00;99963.50;5060442;28;20335;-52
2023/04/12 02:06:08;;;;;;;17.17;4.70;;;;;;;7.20;100.00;99955.84;5071857;28;20032;-50
2023/04/12 02:08:34;;;;;;;24.50;5.53;;;;;;;7.18;100.00;99949.84;5073042;28;20037;-50
2023/04/12 02:11:00;;;;;;;16.05;5.55;;;;;;;7.20;100.00;99947.81;5073664;28;20106;-52
2023/04/12 02:13:25;;;;;;;19.73;6.05;;;;;;;7.20;100.00;99955.03;5063127;28;20481;-51
2023/04/12 02:15:53;;;;;;;21.90;5.32;;;;;;;7.23;100.00;99941.28;5052308;28;20037;-51
2023/04/12 02:18:19;;;;;;;14.55;5.57;;;;;;;7.20;100.00;99934.44;5063624;28;20516;-52
2023/04/12 02:20:45;;;;;;;21.55;5.80;;;;;;;7.19;100.00;99930.13;5053108;28;20029;-52
2023/04/12 02:23:11;;;;;;;23.80;4.88;;;;;;;7.17;100.00;99929.47;5065800;28;20055;-53
2023/04/12 02:25:37;;;;;;;20.30;4.95;;;;;;;7.23;100.00;99915.34;5072496;28;20111;-51
2023/04/12 02:28:02;;;;;;;17.85;5.43;;;;;;;7.19;100.00;99914.06;5073021;28;20504;-49
2023/04/12 02:30:28;;;;;;;17.48;5.65;;;;;;;7.22;100.00;99927.06;5073046;28;20033;-49
2023/04/12 02:32:55;;;;;;;19.48;5.57;;;;;;;7.19;100.00;99916.72;5072880;28;20059;-52
2023/04/12 02:35:21;;;;;;;17.15;5.72;;;;;;;7.21;100.00;99901.34;5072350;28;20060;-52
2023/04/12 02:37:47;;;;;;;16.95;5.55;;;;;;;7.22;100.00;99905.66;5070979;28;20021;-51
2023/04/12 02:40:14;;;;;;;15.55;6.20;;;;;;;7.23;100.00;99899.28;5072411;28;20441;-53
2023/04/12 02:42:39;;;;;;;13.30;5.45;;;;;;;7.21;100.00;99895.13;5069419;28;20020;-51
2023/04/12 02:45:05;;;;;;;19.10;5.68;;;;;;;7.20;100.00;99905.00;5072231;28;20037;-51
2023/04/12 02:47:31;;;;;;;17.83;6.38;;;;;;;7.23;100.00;99887.75;5072307;28;20025;-51
2023/04/12 02:49:56;;;;;;;18.42;6.75;;;;;;;7.28;100.00;99880.00;5069264;28;20500;-52
2023/04/12 02:52:21;;;;;;;14.50;5.55;;;;;;;7.22;100.00;99870.88;5070127;28;20377;-52
2023/04/12 02:54:48;;;;;;;14.35;5.70;;;;;;;7.26;100.00;99874.00;5072006;28;20076;-49
2023/04/12 02:57:14;;;;;;;11.07;6.07;;;;;;;7.25;100.00;99859.78;5071452;28;20040;-49
2023/04/12 02:59:40;;;;;;;22.23;6.38;;;;;;;7.26;100.00;99860.63;5058077;28;20041;-50
2023/04/12 03:02:05;;;;;;;15.15;6.68;;;;;;;7.32;100.00;99859.03;5066075;28;20031;-50
2023/04/12 03:04:31;;;;;;;17.33;6.43;;;;;;;7.30;100.00;99875.31;5071193;28;20037;-50
2023/04/12 03:06:56;;;;;;;21.45;8.18;;;;;;;7.30;100.00;99871.81;5067652;28;20581;-50
2023/04/12 03:09:22;;;;;;;26.13;8.25;;;;;;;7.31;100.00;99852.88;5069546;28;20060;-48
2023/04/12 03:11:48;;;;;;;26.02;9.52;;;;;;;7.29;100.00;99860.25;5064807;28;20039;-51
2023/04/12 03:14:13;;;;;;;23.83;9.80;;;;;;;7.32;100.00;99851.88;5071248;28;20031;-52
2023/04/12 03:16:39;;;;;;;24.02;9.38;;;;;;;7.37;100.00;99846.78;5071026;28;20040;-50
2023/04/12 03:19:05;;;;;;;22.65;10.00;;;;;;;7.34;100.00;99831.06;5070762;28;20028;-51
2023/04/12 03:21:32;;;;;;;22.10;10.50;;;;;;;7.34;100.00;99849.00;5061475;28;20028;-52
2023/04/12 03:23:57;;;;;;;28.83;11.65;;;;;;;7.35;100.00;99840.78;5066348;28;20056;-48
2023/04/12 03:26:25;;;;;;;30.45;12.13;;;;;;;7.37;100.00;99828.06;5072086;28;20064;-52
2023/04/12 03:28:54;;;;;;;24.88;11.80;;;;;;;7.39;100.00;99838.56;5065232;28;20110;-48
2023/04/12 03:31:20;;;;;;;30.67;12.75;;;;;;;7.41;100.00;99829.31;5051493;28;20068;-50
2023/04/12 03:33:45;;;;;;;32.22;14.02;;;;;;;7.40;100.00;99813.47;5063676;28;20056;-52
2023/04/12 03:36:11;;;;;;;32.70;13.25;;;;;;;7.41;100.00;99812.44;5071305;28;20082;-53
2023/04/12 03:38:36;;;;;;;26.77;13.43;;;;;;;7.40;100.00;99814.28;5070152;28;20028;-53
2023/04/12 03:41:02;;;;;;;31.80;14.98;;;;;;;7.42;100.00;99816.75;5071315;28;20429;-51
2023/04/12 03:43:27;;;;;;;32.55;14.65;;;;;;;7.43;100.00;99815.78;5060509;28;20036;-53
2023/04/12 03:45:52;;;;;;;33.38;14.73;;;;;;;7.49;100.00;99785.56;5070563;28;20035;-51
2023/04/12 03:48:18;;;;;;;35.60;13.73;;;;;;;7.50;100.00;99794.41;5070985;28;20044;-53
2023/04/12 03:50:43;;;;;;;36.50;14.82;;;;;;;7.50;100.00;99783.72;5068905;28;20644;-49
2023/04/12 03:53:12;;;;;;;27.33;12.85;;;;;;;7.55;100.00;99794.69;5068640;28;20338;-52
2023/04/12 03:55:37;;;;;;;31.35;13.95;;;;;;;7.53;100.00;99784.19;5068769;28;20526;-52
2023/04/12 03:58:03;;;;;;;34.58;15.45;;;;;;;7.54;100.00;99785.81;5068680;28;20037;-48
2023/04/12 04:00:32;;;;;;;30.98;16.05;;;;;;;7.54;100.00;99779.66;5066365;28;20025;-53
2023/04/12 04:03:01;;;;;;;36.85;17.98;;;;;;;7.54;100.00;99788.50;5067992;28;20448;-48
2023/04/12 04:05:28;;;;;;;43.10;18.48;;;;;;;7.54;100.00;99777.78;5069571;28;20036;-49
2023/04/12 04:07:54;;;;;;;43.08;18.05;;;;;;;7.57;100.00;99782.78;5068351;28;20021;-51
2023/04/12 04:10:20;;;;;;;47.67;18.95;;;;;;;7.58;100.00;99786.28;5069040;28;20047;-53
2023/04/12 04:12:45;;;;;;;42.40;18.27;;;;;;;7.60;100.00;99786.91;5068100;28;20032;-53
2023/04/12 04:15:10;;;;;;;42.15;19.33;;;;;;;7.62;100.00;99788.38;5069596;28;20085;-51
2023/04/12 04:17:36;;;;;;;49.60;20.83;;;;;;;7.66;100.00;99794.19;5047541;28;20037;-54
2023/04/12 04:20:04;;;;;;;45.40;19.10;;;;;;;7.68;100.00;99798.34;5066282;28;20101;-52
2023/04/12 04:22:31;;;;;;;;;;;;;;;7.70;100.00;99795.47;5057496;28;20648;-51
2023/04/12 04:24:57;;;;;;;39.57;17.80;;;;;;;7.76;100.00;99800.06;5054865;28;20310;-50
2023/04/12 04:27:22;;;;;;;50.95;16.60;;;;;;;7.80;100.00;99790.66;5061212;28;20048;-51
2023/04/12 04:29:49;;;;;;;43.67;15.07;;;;;;;7.82;100.00;99791.31;5065290;28;20349;-49
2023/04/12 04:32:15;;;;;;;51.20;16.42;;;;;;;7.85;100.00;99790.91;5057015;28;20024;-50
2023/04/12 04:34:40;;;;;;;39.05;15.13;;;;;;;7.89;100.00;99796.72;5068721;28;20538;-50
2023/04/12 04:37:06;;;;;;;50.67;15.48;;;;;;;7.91;100.00;99794.69;5068590;28;20033;-49
2023/04/12 04:39:31;;;;;;;46.42;15.57;;;;;;;7.93;100.00;99794.50;5070593;28;20043;-50
2023/04/12 04:41:57;;;;;;;46.38;16.33;;;;;;;7.92;100.00;99785.59;5070919;28;20421;-49
2023/04/12 04:44:24;;;;;;;45.28;15.32;;;;;;;7.94;100.00;99793.47;5071744;28;20032;-50
2023/04/12 04:46:50;;;;;;;47.20;16.45;;;;;;;7.96;100.00;99789.59;5062809;28;20036;-52
2023/04/12 04:49:17;;;;;;;49.50;15.32;;;;;;;7.97;100.00;99788.53;5065772;28;20135;-49
2023/04/12 04:51:42;;;;;;;43.75;15.93;;;;;;;8.00;100.00;99796.19;5072192;28;20684;-49
2023/04/12 04:54:08;;;;;;;41.90;16.25;;;;;;;8.01;100.00;99789.00;5066765;28;20096;-49
2023/04/12 04:56:33;;;;;;;58.88;16.25;;;;;;;8.03;100.00;99790.50;5071398;28;20032;-47
2023/04/12 04:58:58;;;;;;;55.30;15.43;;;;;;;8.04;100.00;99791.31;5064831;28;20441;-48
2023/04/12 05:01:28;;;;;;;59.25;17.33;;;;;;;8.05;100.00;99777.69;5073410;28;20166;-47
2023/04/12 05:03:54;;;;;;;51.83;16.38;;;;;;;8.07;100.00;99781.03;5073605;28;20333;-48
2023/04/12 05:06:19;;;;;;;50.95;14.85;;;;;;;8.07;100.00;99788.25;5073141;28;20370;-48
2023/04/12 05:08:45;;;;;;;58.53;16.40;;;;;;;8.09;100.00;99788.88;5072695;28;20074;-48
2023/04/12 05:11:10;;;;;;;54.58;12.65;;;;;;;8.10;100.00;99788.69;5073452;28;20477;-47
2023/04/12 05:13:35;;;;;;;47.78;11.48;;;;;;;8.11;100.00;99773.44;5074371;28;20367;-49
2023/04/12 05:16:05;;;;;;;61.08;10.73;;;;;;;8.11;100.00;99779.63;5064250;28;20036;-50
2023/04/12 05:18:30;;;;;;;46.13;9.25;;;;;;;8.14;100.00;99775.75;5052609;28;20064;-51
2023/04/12 05:21:01;;;;;;;72.75;9.23;;;;;;;8.14;100.00;99776.56;5061298;28;20492;-52
2023/04/12 05:23:26;;;;;;;65.55;8.40;;;;;;;8.14;100.00;99773.88;5072497;28;20097;-50
2023/04/12 05:25:52;;;;;;;58.85;7.57;;;;;;;8.17;100.00;99777.22;5073480;28;20667;-49
2023/04/12 05:28:17;;;;;;;56.15;7.63;;;;;;;8.13;100.00;99774.88;5068003;28;20039;-49
2023/04/12 05:30:43;;;;;;;56.88;7.63;;;;;;;8.13;100.00;99782.94;5061357;28;20055;-47
2023/04/12 05:33:09;;;;;;;64.18;6.88;;;;;;;8.14;100.00;99775.75;5061913;28;20033;-49
2023/04/12 05:35:34;;;;;;;60.40;6.65;;;;;;;8.13;100.00;99782.09;5057156;28;20040;-48
2023/04/12 05:38:00;;;;;;;59.50;6.63;;;;;;;8.10;100.00;99786.00;5064336;28;20075;-49
2023/04/12 05:40:25;;;;;;;65.22;6.40;;;;;;;8.13;100.00;99787.47;5056960;28;20033;-49
2023/04/12 05:42:50;;;;;;;72.03;8.13;;;;;;;8.12;100.00;99783.13;5069607;28;20029;-47
2023/04/12 05:45:16;;;;;;;77.55;6.72;;;;;;;8.12;100.00;99786.63;5062901;28;20052;-48
2023/04/12 05:47:41;;;;;;;70.53;6.65;;;;;;;8.13;100.00;99787.47;5065091;28;20024;-48
2023/04/12 05:50:07;;;;;;;71.28;6.75;;;;;;;8.11;100.00;99778.81;5073121;28;20075;-51
2023/04/12 05:52:32;;;;;;;59.53;6.03;;;;;;;8.11;100.00;99774.28;5073184;28;20043;-52
2023/04/12 05:54:58;;;;;;;60.28;5.97;;;;;;;8.07;100.00;99762.28;5071081;28;20044;-50
2023/04/12 05:57:24;;;;;;;70.95;5.35;;;;;;;8.07;100.00;99764.94;5073643;28;20029;-48
2023/04/12 05:59:49;;;;;;;60.83;5.00;;;;;;;8.02;100.00;99763.88;5072924;28;20016;-48
2023/04/12 06:02:15;;;;;;;71.97;5.93;;;;;;;8.03;100.00;99765.50;5068644;28;20028;-51
2023/04/12 06:04:40;;;;;;;72.25;5.95;;;;;;;8.02;100.00;99770.06;5072263;28;20032;-49
2023/04/12 06:07:06;;;;;;;57.10;5.22;;;;;;;8.04;100.00;99770.69;5073072;28;20075;-51
2023/04/12 06:09:32;;;;;;;70.47;6.10;;;;;;;8.06;100.00;99760.63;5071230;28;20058;-48
2023/04/12 06:11:57;;;;;;;74.53;6.03;;;;;;;8.08;100.00;99755.06;5073245;28;20032;-47
2023/04/12 06:14:23;;;;;;;60.25;5.55;;;;;;;8.11;100.00;99758.19;5071191;28;20031;-46
2023/04/12 06:16:48;;;;;;;67.10;5.82;;;;;;;8.13;100.00;99761.50;5070126;28;20078;-50
2023/04/12 06:19:13;;;;;;;60.05;5.93;;;;;;;8.13;100.00;99756.13;5062844;28;20028;-51
2023/04/12 06:21:39;;;;;;;65.28;5.43;;;;;;;8.12;100.00;99757.16;5052739;28;20037;-49
2023/04/12 06:24:05;;;;;;;81.13;7.13;;;;;;;8.13;100.00;99761.50;5055548;28;20671;-50
2023/04/12 06:26:31;;;;;;;69.38;5.07;;;;;;;8.11;100.00;99760.06;5070936;28;20111;-47
2023/04/12 06:28:56;;;;;;;78.65;6.07;;;;;;;8.11;100.00;99755.53;5072352;28;20017;-49
2023/04/12 06:31:21;;;;;;;58.22;4.22;;;;;;;8.12;100.00;99757.16;5067246;28;20025;-47
2023/04/12 06:33:47;;;;;;;69.50;4.75;;;;;;;8.11;100.00;99741.28;5065919;28;20028;-47
2023/04/12 06:36:14;;;;;;;76.47;5.35;;;;;;;8.19;100.00;99745.66;5071593;28;20492;-48
2023/04/12 06:38:39;;;;;;;72.55;5.35;;;;;;;8.23;100.00;99742.41;5068694;28;20027;-48
2023/04/12 06:41:05;;;;;;;55.30;6.00;;;;;;;8.32;100.00;99735.91;5062041;28;20036;-48
2023/04/12 06:43:30;;;;;;;40.65;4.97;;;;;;;8.42;100.00;99738.25;5052141;28;20454;-47
2023/04/12 06:45:57;;;;;;;50.28;6.45;;;;;;;8.47;100.00;99721.59;5064601;28;20040;-48
2023/04/12 06:48:22;;;;;;;73.45;6.10;;;;;;;8.48;100.00;99726.75;5061163;28;20053;-50
2023/04/12 06:50:47;;;;;;;64.07;4.78;;;;;;;8.53;100.00;99716.28;5065839;28;20093;-50
2023/04/12 06:53:13;;;;;;;71.50;5.97;;;;;;;8.57;100.00;99722.91;5056592;28;20055;-50
2023/04/12 06:55:39;;;;;;;53.80;6.10;;;;;;;8.56;100.00;99721.25;5052433;28;20051;-49
2023/04/12 06:58:04;;;;;;;88.93;6.88;;;;;;;8.44;100.00;99717.44;5062752;28;20040;-50
2023/04/12 07:00:30;;;;;;;59.40;6.18;;;;;;;8.54;100.00;99717.94;5061720;28;20056;-47
2023/04/12 07:02:55;;;;;;;70.35;5.35;;;;;;;9.17;100.00;99703.59;5063853;28;20361;-48
2023/04/12 07:05:20;;;;;;;61.72;5.15;;;;;;;9.87;100.00;99706.84;5052422;28;20032;-48
2023/04/12 07:07:46;;;;;;;72.97;4.63;;;;;;;10.73;100.00;99688.00;5064967;28;20521;-49
2023/04/12 07:10:11;;;;;;;57.00;4.55;;;;;;;11.69;100.00;99675.56;5066941;28;20088;-48
2023/04/12 07:12:36;;;;;;;66.25;5.63;;;;;;;12.48;100.00;99660.59;5071356;28;20100;-49
2023/04/12 07:15:02;;;;;;;71.22;6.53;;;;;;;13.24;100.00;99650.31;5069137;28;20130;-51
2023/04/12 07:17:27;;;;;;;52.10;5.68;;;;;;;13.57;100.00;99638.28;5062390;28;20040;-48
2023/04/12 07:19:53;;;;;;;48.78;4.78;;;;;;;13.94;100.00;99638.91;5069207;28;20111;-48
2023/04/12 07:22:19;;;;;;;47.03;4.82;;;;;;;13.96;100.00;99636.00;5054007;28;20047;-47
2023/04/12 07:24:44;;;;;;;54.22;3.97;;;;;;;13.13;100.00;99641.13;5061155;28;20045;-47
2023/04/12 07:27:10;;;;;;;43.22;4.57;;;;;;;12.43;100.00;99644.25;5070793;28;20433;-51
2023/04/12 07:29:36;;;;;;;48.20;5.13;;;;;;;11.76;100.00;99643.16;5070360;28;20111;-49
2023/04/12 07:32:02;;;;;;;47.88;4.68;;;;;;;11.33;100.00;99641.16;5066021;28;20024;-50
2023/04/12 07:34:27;;;;;;;53.88;6.03;;;;;;;11.14;100.00;99645.63;5058400;28;20040;-50
2023/04/12 07:36:53;;;;;;;72.55;8.65;;;;;;;10.88;100.00;99638.50;5052176;28;20047;-48
2023/04/12 07:39:18;;;;;;;63.97;5.03;;;;;;;10.66;100.00;99638.75;5052898;28;20036;-48
2023/04/12 07:41:45;;;;;;;53.75;5.10;;;;;;;10.45;100.00;99633.63;5057770;28;20116;-50
2023/04/12 07:44:11;;;;;;;73.05;5.10;;;;;;;10.65;100.00;99642.50;5052031;28;20033;-50
2023/04/12 07:46:37;;;;;;;52.33;6.43;;;;;;;10.60;100.00;99634.22;5057479;28;20545;-49
2023/04/12 07:49:03;;;;;;;58.83;4.90;;;;;;;10.91;100.00;99646.94;5051017;28;20057;-47
2023/04/12 07:51:28;;;;;;;61.33;7.03;;;;;;;10.54;100.00;99640.47;5050794;28;20059;-48
2023/04/12 07:53:53;;;;;;;47.00;4.40;;;;;;;10.74;100.00;99643.94;5051027;28;20106;-50
2023/04/12 07:56:19;;;;;;;40.40;4.13;;;;;;;11.06;100.00;99644.00;5051215;28;20029;-50
2023/04/12 07:58:44;;;;;;;58.80;5.53;;;;;;;12.10;100.00;99638.34;5058647;28;20456;-49
2023/04/12 08:01:11;;;;;;;35.60;4.05;;;;;;;12.26;100.00;99630.50;5064906;28;20082;-50
2023/04/12 08:03:36;;;;;;;37.05;4.15;;;;;;;12.61;100.00;99634.50;5064023;28;20051;-48
2023/04/12 08:06:02;;;;;;;51.42;3.85;;;;;;;12.42;100.00;99634.47;5049345;28;20102;-50
2023/04/12 08:08:27;;;;;;;47.25;4.15;;;;;;;13.04;100.00;99629.00;5050549;28;20052;-50
2023/04/12 08:10:52;;;;;;;52.35;5.18;;;;;;;13.17;100.00;99628.00;5057865;28;20023;-47
2023/04/12 08:13:18;;;;;;;64.15;6.45;;;;;;;13.62;100.00;99630.28;5068526;28;20087;-50
2023/04/12 08:15:45;;;;;;;43.60;5.43;;;;;;;13.72;100.00;99630.56;5068156;28;20023;-47
2023/04/12 08:18:11;;;;;;;46.25;4.70;;;;;;;14.56;100.00;99633.06;5061147;28;20086;-49
2023/04/12 08:20:39;;;;;;;59.47;4.85;;;;;;;14.63;100.00;99647.28;5059562;28;20416;-48
2023/04/12 08:23:04;;;;;;;;;;;;;;;15.39;100.00;99649.09;5069508;28;20035;-49
2023/04/12 08:25:30;;;;;;;32.50;4.30;;;;;;;15.77;100.00;99640.28;5070606;28;19908;-48
2023/04/12 08:27:55;;;;;;;46.22;4.95;;;;;;;16.42;100.00;99647.81;5070051;28;20362;-48
2023/04/12 08:30:25;;;;;;;40.10;4.88;;;;;;;17.09;94.47;99641.41;5070538;28;20032;-48
2023/04/12 08:32:51;;;;;;;44.47;4.25;;;;;;;17.09;95.34;99641.41;5065162;28;20499;-49
2023/04/12 08:35:17;;;;;;;37.70;4.60;;;;;;;16.65;89.66;99640.53;5059078;28;20461;-48
2023/04/12 08:37:42;;;;;;;59.92;5.07;;;;;;;16.02;92.18;99635.28;5056036;28;20033;-49
2023/04/12 08:40:08;;;;;;;37.38;4.18;;;;;;;15.09;95.78;99640.13;5050764;28;20087;-49
2023/04/12 08:42:35;;;;;;;48.08;4.05;;;;;;;14.68;99.97;99639.28;5050463;28;20041;-49
2023/04/12 08:45:10;;;;;;;42.47;5.38;;;;;;;14.25;100.00;99635.06;5049207;28;20025;-48
2023/04/12 08:47:40;;;;;;;39.05;3.85;;;;;;;13.85;100.00;99629.53;5049584;28;20307;-49
2023/04/12 08:50:11;;;;;;;38.17;4.00;;;;;;;13.94;100.00;99628.09;5050023;28;20025;-49
2023/04/12 08:52:37;;;;;;;29.45;3.65;;;;;;;13.56;100.00;99625.78;5049595;28;20033;-47
2023/04/12 08:55:04;;;;;;;45.85;4.25;;;;;;;13.29;100.00;99625.38;5048837;28;20052;-49
2023/04/12 08:57:31;;;;;;;42.17;5.03;;;;;;;12.88;100.00;99630.44;5048924;28;20029;-52
2023/04/12 08:59:58;;;;;;;49.20;4.73;;;;;;;12.82;100.00;99620.56;5048855;28;20450;-48
2023/04/12 09:02:23;;;;;;;35.03;5.05;;;;;;;12.44;100.00;99624.28;5056888;28;20017;-48
2023/04/12 09:04:51;;;;;;;45.33;4.03;;;;;;;12.49;100.00;99632.53;5055311;28;20021;-47
2023/04/12 09:07:16;;;;;;;66.80;6.03;;;;;;;12.30;100.00;99620.91;5057494;28;20492;-47
2023/04/12 09:09:45;;;;;;;40.15;4.45;;;;;;;12.47;100.00;99631.13;5060432;28;20044;-51
2023/04/12 09:12:11;;;;;;;46.42;4.55;;;;;;;12.42;100.00;99628.25;5062076;28;20033;-48
2023/04/12 09:14:38;;;;;;;50.85;5.03;;;;;;;12.38;100.00;99630.59;5054517;28;20032;-49
2023/04/12 09:17:04;;;;;;;37.20;3.45;;;;;;;12.55;100.00;99640.78;5051368;28;20033;-48
2023/04/12 09:19:34;;;;;;;55.55;5.47;;;;;;;13.09;100.00;99637.25;5050372;28;20029;-48
2023/04/12 09:22:00;;;;;;;41.05;4.18;;;;;;;13.27;100.00;99628.31;5063008;28;20389;-50
2023/04/12 09:24:26;;;;;;;56.63;5.88;;;;;;;13.14;100.00;99631.16;5055590;28;20028;-48
2023/04/12 09:27:03;;;;;;;43.28;4.95;;;;;;;12.74;100.00;99629.78;5068387;28;20041;-47
2023/04/12 09:29:29;;;;;;;38.83;5.03;;;;;;;12.57;100.00;99627.91;5059055;28;20112;-49
2023/04/12 09:31:56;;;;;;;40.22;5.25;;;;;;;12.70;100.00;99630.47;5061656;28;20176;-48
2023/04/12 09:34:21;;;;;;;43.85;4.82;;;;;;;12.85;100.00;99627.34;5072398;28;20031;-49
2023/04/12 09:36:46;;;;;;;28.58;4.60;;;;;;;12.94;100.00;99624.13;5071676;28;20036;-49
2023/04/12 09:39:12;;;;;;;44.90;4.43;;;;;;;13.10;100.00;99632.66;5059530;28;20093;-48
2023/04/12 09:41:37;;;;;;;45.97;4.15;;;;;;;13.55;100.00;99629.56;5071581;28;20062;-51
2023/04/12 09:44:03;;;;;;;42.70;4.68;;;;;;;13.56;100.00;99639.31;5072854;28;20481;-48
2023/04/12 09:46:28;;;;;;;24.50;3.42;;;;;;;13.66;100.00;99625.22;5056852;28;20393;-49
2023/04/12 09:48:57;;;;;;;38.15;4.28;;;;;;;13.85;100.00;99632.22;5063289;28;20028;-50
2023/04/12 09:51:41;;;;;;;47.75;4.15;;;;;;;13.46;100.00;99636.38;5068142;28;20090;-51
2023/04/12 09:54:07;;;;;;;57.83;5.03;;;;;;;13.07;100.00;99642.03;5073554;28;20045;-49
2023/04/12 09:56:34;;;;;;;36.30;4.13;;;;;;;13.03;100.00;99634.63;5055185;28;20062;-48
2023/04/12 09:59:04;;;;;;;32.40;3.70;;;;;;;12.48;100.00;99641.69;5072982;28;20047;-48
2023/04/12 10:01:38;;;;;;;35.65;4.75;;;;;;;12.63;100.00;99624.31;5071369;28;20044;-48
2023/04/12 10:04:08;;;;;;;37.10;4.18;;;;;;;12.94;100.00;99629.53;5061232;28;20505;-48
2023/04/12 10:06:34;;;;;;;33.67;3.78;;;;;;;12.77;97.80;99636.59;5057696;28;20036;-47
2023/04/12 10:09:03;;;;;;;22.52;3.33;;;;;;;12.77;93.17;99631.22;5071893;28;20037;-48
2023/04/12 10:11:28;;;;;;;22.77;3.72;;;;;;;12.79;91.20;99629.09;5072150;28;20111;-49
2023/04/12 10:13:55;;;;;;;23.20;3.22;;;;;;;12.90;88.85;99633.75;5062200;28;20140;-49
2023/04/12 10:16:21;;;;;;;26.58;3.40;;;;;;;12.98;89.91;99637.16;5051903;28;20021;-48
2023/04/12 10:18:47;;;;;;;31.85;3.40;;;;;;;13.50;85.72;99638.34;5053503;28;20025;-50
2023/04/12 10:21:12;;;;;;;29.30;3.55;;;;;;;13.87;89.17;99640.09;5052129;28;20488;-49
2023/04/12 10:23:38;;;;;;;26.75;3.42;;;;;;;13.97;87.67;99637.63;5053001;28;20021;-49
2023/04/12 10:26:04;;;;;;;27.10;3.70;;;;;;;13.88;88.41;99639.03;5064554;28;20098;-48
2023/04/12 10:28:29;;;;;;;23.52;3.15;;;;;;;13.27;83.25;99649.06;5071607;28;20028;-49
2023/04/12 10:30:58;;;;;;;27.65;3.30;;;;;;;12.87;85.11;99644.16;5072435;28;20469;-49
2023/04/12 10:33:29;;;;;;;37.90;3.58;;;;;;;12.78;89.89;99632.84;5070144;28;20032;-50
2023/04/12 10:36:05;;;;;;;31.00;3.35;;;;;;;13.18;88.16;99632.34;5065673;28;20526;-47
2023/04/12 10:38:44;;;;;;;25.25;3.35;;;;;;;13.76;89.19;99634.41;5052389;28;20056;-49
2023/04/12 10:41:17;;;;;;;33.60;4.60;;;;;;;13.93;86.81;99641.84;5052764;28;20468;-46
2023/04/12 10:43:44;;;;;;;24.73;2.90;;;;;;;14.13;85.10;99636.94;5052679;28;20040;-48
2023/04/12 10:46:37;;;;;;;25.50;2.83;;;;;;;14.57;85.39;99647.44;5059270;28;20033;-50
2023/04/12 10:49:13;;;;;;;18.02;2.50;;;;;;;14.45;81.93;99650.09;5052335;28;20702;-47
2023/04/12 10:51:40;;;;;;;15.70;2.35;;;;;;;14.08;81.26;99647.63;5060089;28;20038;-47
2023/04/12 10:54:15;;;;;;;21.52;2.67;;;;;;;13.94;80.62;99644.34;5059115;28;20056;-48
2023/04/12 10:56:44;;;;;;;15.15;2.50;;;;;;;14.20;84.01;99642.25;5052811;28;20397;-47
2023/04/12 10:59:11;;;;;;;19.92;2.65;;;;;;;14.54;80.35;99654.16;5055095;28;20726;-49
2023/04/12 11:01:37;;;;;;;20.02;2.85;;;;;;;13.90;75.67;99653.13;5069281;28;20034;-48
2023/04/12 11:04:08;;;;;;;20.20;2.53;;;;;;;14.20;75.44;99664.72;5072062;28;20441;-49
2023/04/12 11:06:51;;;;;;;23.70;2.38;;;;;;;14.51;75.97;99654.59;5070291;28;20040;-49
2023/04/12 11:09:31;;;;;;;17.23;2.80;;;;;;;14.43;73.34;99653.06;5070786;28;20032;-52
2023/04/12 11:12:02;;;;;;;25.95;2.53;;;;;;;14.06;76.82;99657.88;5057254;28;20545;-48
2023/04/12 11:14:32;;;;;;;23.13;2.78;;;;;;;14.47;79.46;99661.53;5066138;28;20481;-48
2023/04/12 11:17:07;;;;;;;24.73;3.00;;;;;;;14.68;82.25;99655.53;5054432;28;20078;-49
2023/04/12 11:19:33;;;;;;;15.23;2.10;;;;;;;15.19;73.54;99666.59;5070546;28;20096;-49
2023/04/12 11:22:05;;;;;;;16.30;1.83;;;;;;;14.97;71.86;99658.28;5064524;28;20048;-49